Time;durP1;ratioP1;P1;durP2;ratioP2;P2;SDS_P1;SDS_P2;PMS_P1;PMS_P2;Temp;Humidity;BMP_temperature;BMP_pressure;BME280_temperature;BME280_humidity;BME280_pressure;Samples;Min_cycle;Max_cycle;Signal;HPM_P1;HPM_P2
2021/11/16 00:02:12;;;;;;;32.77;17.40;;;;;;;;;;5051304;28;20402;-48
2021/11/16 00:04:38;;;;;;;35.53;17.70;;;;;;;;;;5051295;28;20776;-49
2021/11/16 00:07:05;;;;;;;34.30;17.50;;;;;;;;;;5051296;28;20888;-48
2021/11/16 00:09:31;;;;;;;28.77;16.23;;;;;;;;;;5051399;28;20412;-48
2021/11/16 00:11:57;;;;;;;28.77;15.90;;;;;;;;;;5051239;28;20413;-49
2021/11/16 00:14:23;;;;;;;32.40;15.77;;;;;;;;;;5051118;28;20420;-49
2021/11/16 00:16:49;;;;;;;40.30;18.10;;;;;;;;;;5051142;28;20452;-49
2021/11/16 00:19:16;;;;;;;36.70;16.47;;;;;;;;;;5051312;28;20397;-51
2021/11/16 00:21:46;;;;;;;31.07;16.40;;;;;;;;;;5053266;28;20406;-48
2021/11/16 00:24:14;;;;;;;30.13;16.77;;;;;;;;;;5054787;28;20422;-51
2021/11/16 00:26:41;;;;;;;35.50;17.07;;;;;;;;;;5055072;28;20398;-49
2021/11/16 00:29:07;;;;;;;29.20;16.97;;;;;;;;;;5055014;28;20406;-49
2021/11/16 00:31:33;;;;;;;29.97;16.57;;;;;;;;;;5054919;28;20399;-49
2021/11/16 00:34:00;;;;;;;33.53;15.93;;;;;;;;;;5054433;28;21054;-49
2021/11/16 00:36:26;;;;;;;35.77;16.30;;;;;;;;;;5054822;28;20491;-48
2021/11/16 00:38:52;;;;;;;32.23;17.50;;;;;;;;;;5054773;28;20408;-48
2021/11/16 00:41:18;;;;;;;34.00;17.57;;;;;;;;;;5054800;28;20395;-48
2021/11/16 00:43:44;;;;;;;35.10;17.20;;;;;;;;;;5054443;28;20433;-48
2021/11/16 00:46:10;;;;;;;37.73;17.60;;;;;;;;;;5054557;28;20403;-48
2021/11/16 00:48:38;;;;;;;33.07;18.53;;;;;;;;;;5054595;28;20988;-48
2021/11/16 00:51:05;;;;;;;31.07;17.57;;;;;;;;;;5054559;28;20826;-49
2021/11/16 00:53:32;;;;;;;33.13;18.33;;;;;;;;;;5054178;28;20520;-48
2021/11/16 00:55:59;;;;;;;33.13;17.57;;;;;;;;;;5054256;28;20768;-49
2021/11/16 00:58:26;;;;;;;38.37;19.00;;;;;;;;;;5054430;28;20403;-48
2021/11/16 01:00:52;;;;;;;35.30;16.53;;;;;;;;;;5054324;28;20407;-48
2021/11/16 01:03:19;;;;;;;27.13;17.23;;;;;;;;;;5053941;28;20430;-51
2021/11/16 01:05:46;;;;;;;30.03;16.90;;;;;;;;;;5054343;28;20764;-48
2021/11/16 01:08:12;;;;;;;33.13;16.33;;;;;;;;;;5054276;28;20440;-48
2021/11/16 01:10:39;;;;;;;31.40;17.27;;;;;;;;;;5054179;28;20541;-48
2021/11/16 01:13:05;;;;;;;23.23;15.00;;;;;;;;;;5053764;28;20852;-48
2021/11/16 01:15:34;;;;;;;33.60;16.50;;;;;;;;;;5053955;28;20407;-50
2021/11/16 01:18:00;;;;;;;29.97;17.10;;;;;;;;;;5053966;28;20419;-49
2021/11/16 01:20:26;;;;;;;31.83;16.20;;;;;;;;;;5054071;28;20402;-49
2021/11/16 01:22:54;;;;;;;29.60;16.80;;;;;;;;;;5053684;28;20417;-48
2021/11/16 01:25:21;;;;;;;34.47;17.27;;;;;;;;;;5054051;28;20443;-48
2021/11/16 01:27:47;;;;;;;32.17;16.33;;;;;;;;;;5053806;28;20401;-47
2021/11/16 01:30:14;;;;;;;30.67;15.83;;;;;;;;;;5053702;28;20461;-48
2021/11/16 01:32:45;;;;;;;32.23;17.27;;;;;;;;;;5052948;28;20515;-49
2021/11/16 01:35:11;;;;;;;33.83;16.90;;;;;;;;;;5054017;28;20437;-49
2021/11/16 01:37:38;;;;;;;29.37;16.13;;;;;;;;;;5053647;28;20489;-49
2021/11/16 01:40:06;;;;;;;28.03;15.10;;;;;;;;;;5053667;28;20406;-48
2021/11/16 01:42:32;;;;;;;29.43;17.30;;;;;;;;;;5053365;28;20413;-48
2021/11/16 01:44:58;;;;;;;32.80;15.90;;;;;;;;;;5053440;28;20406;-49
2021/11/16 01:47:25;;;;;;;30.10;16.70;;;;;;;;;;5053498;28;20500;-48
2021/11/16 01:49:51;;;;;;;29.67;16.37;;;;;;;;;;5053449;28;20409;-49
2021/11/16 01:52:17;;;;;;;25.60;15.63;;;;;;;;;;5053120;28;20817;-49
2021/11/16 01:54:44;;;;;;;36.27;17.20;;;;;;;;;;5053396;28;20410;-50
2021/11/16 01:57:10;;;;;;;34.30;16.83;;;;;;;;;;5053174;28;20418;-51
2021/11/16 01:59:36;;;;;;;32.07;16.77;;;;;;;;;;5053176;28;20397;-48
2021/11/16 02:02:03;;;;;;;25.77;15.63;;;;;;;;;;5052741;28;20397;-48
2021/11/16 02:04:29;;;;;;;31.57;17.00;;;;;;;;;;5052321;28;20885;-48
2021/11/16 02:06:55;;;;;;;34.03;16.70;;;;;;;;;;5053790;28;20886;-49
2021/11/16 02:09:21;;;;;;;31.13;17.43;;;;;;;;;;5034923;28;20794;-48
2021/11/16 02:11:47;;;;;;;33.50;16.30;;;;;;;;;;5053032;28;20405;-51
2021/11/16 02:14:14;;;;;;;28.75;16.70;;;;;;;;;;5052397;28;20458;-50
2021/11/16 02:16:41;;;;;;;28.50;15.52;;;;;;;;;;5053041;28;20564;-48
2021/11/16 02:19:09;;;;;;;29.40;14.73;;;;;;;;;;5052904;28;20169;-49
2021/11/16 02:21:36;;;;;;;27.37;16.87;;;;;;;;;;5052882;28;20175;-48
2021/11/16 02:24:03;;;;;;;29.40;15.37;;;;;;;;;;5052941;28;20432;-49
2021/11/16 02:26:29;;;;;;;30.05;16.55;;;;;;;;;;5052614;28;20410;-48
2021/11/16 02:28:55;;;;;;;33.83;16.38;;;;;;;;;;5052672;28;20537;-48
2021/11/16 02:31:22;;;;;;;29.33;17.27;;;;;;;;;;5052714;28;20613;-48
2021/11/16 02:33:48;;;;;;;39.00;20.58;;;;;;;;;;5052261;28;20211;-49
2021/11/16 02:36:14;;;;;;;30.70;17.60;;;;;;;;;;5052537;28;20575;-49
2021/11/16 02:38:41;;;;;;;33.25;17.25;;;;;;;;;;5052868;28;20814;-49
2021/11/16 02:41:07;;;;;;;31.65;15.63;;;;;;;;;;5052369;28;20163;-49
2021/11/16 02:43:34;;;;;;;30.83;15.90;;;;;;;;;;5051365;28;20277;-49
2021/11/16 02:46:04;;;;;;;27.53;15.80;;;;;;;;;;5052386;28;20405;-48
2021/11/16 02:48:31;;;;;;;31.35;15.43;;;;;;;;;;5052389;28;20410;-48
2021/11/16 02:50:57;;;;;;;27.43;16.10;;;;;;;;;;5052251;28;20517;-49
2021/11/16 02:53:24;;;;;;;28.47;15.30;;;;;;;;;;5051911;28;20957;-49
2021/11/16 02:55:50;;;;;;;28.13;17.27;;;;;;;;;;5051938;28;20422;-48
2021/11/16 02:58:17;;;;;;;29.60;16.10;;;;;;;;;;5052423;28;20765;-49
2021/11/16 03:00:46;;;;;;;40.55;17.45;;;;;;;;;;5052178;28;20402;-48
2021/11/16 03:03:12;;;;;;;31.33;16.60;;;;;;;;;;5051837;28;20244;-49
2021/11/16 03:05:38;;;;;;;30.27;16.70;;;;;;;;;;5052035;28;20421;-49
2021/11/16 03:08:18;;;;;;;31.50;16.20;;;;;;;;;;5052014;28;20437;-51
2021/11/16 03:10:45;;;;;;;31.00;17.00;;;;;;;;;;5052090;28;20517;-49
2021/11/16 03:13:11;;;;;;;28.93;17.60;;;;;;;;;;5051510;28;21046;-49
2021/11/16 03:15:38;;;;;;;35.57;18.20;;;;;;;;;;5051884;28;20433;-49
2021/11/16 03:18:04;;;;;;;32.37;17.17;;;;;;;;;;5051913;28;20402;-48
2021/11/16 03:20:30;;;;;;;32.40;17.13;;;;;;;;;;5051927;28;20405;-48
2021/11/16 03:23:06;;;;;;;31.97;17.07;;;;;;;;;;5051428;28;20950;-48
2021/11/16 03:25:34;;;;;;;31.13;17.60;;;;;;;;;;5051829;28;20403;-48
2021/11/16 03:28:04;;;;;;;31.23;16.10;;;;;;;;;;5051872;28;20452;-48
2021/11/16 03:30:31;;;;;;;31.23;17.70;;;;;;;;;;5051801;28;20437;-49
2021/11/16 03:32:57;;;;;;;32.20;17.40;;;;;;;;;;5051339;28;20458;-49
2021/11/16 03:35:24;;;;;;;30.33;15.90;;;;;;;;;;5051660;28;20399;-48
2021/11/16 03:37:54;;;;;;;37.20;17.57;;;;;;;;;;5051630;28;20398;-49
2021/11/16 03:40:21;;;;;;;35.67;19.40;;;;;;;;;;5051840;28;20416;-49
2021/11/16 03:42:48;;;;;;;35.53;16.97;;;;;;;;;;5051331;28;20553;-49
2021/11/16 03:45:16;;;;;;;36.57;18.73;;;;;;;;;;5051648;28;20776;-49
2021/11/16 03:47:42;;;;;;;30.00;17.03;;;;;;;;;;5051450;28;20790;-48
2021/11/16 03:50:10;;;;;;;30.73;16.63;;;;;;;;;;5051616;28;20410;-49
2021/11/16 03:52:40;;;;;;;34.53;18.70;;;;;;;;;;5051238;28;20468;-49
2021/11/16 03:55:06;;;;;;;32.00;18.37;;;;;;;;;;5052791;28;20390;-49
2021/11/16 03:57:32;;;;;;;32.43;17.00;;;;;;;;;;5055522;28;20906;-48
2021/11/16 03:59:59;;;;;;;36.97;17.83;;;;;;;;;;5055774;28;20738;-48
2021/11/16 04:02:25;;;;;;;34.20;17.57;;;;;;;;;;5055113;28;20398;-48
2021/11/16 04:04:54;;;;;;;41.07;18.30;;;;;;;;;;5055540;28;20418;-48
2021/11/16 04:07:21;;;;;;;35.07;16.37;;;;;;;;;;5055381;28;20402;-49
2021/11/16 04:09:47;;;;;;;28.97;17.03;;;;;;;;;;5055354;28;20485;-49
2021/11/16 04:12:13;;;;;;;33.07;17.93;;;;;;;;;;5056788;28;20409;-49
2021/11/16 04:14:39;;;;;;;32.87;15.93;;;;;;;;;;5040686;28;20410;-49
2021/11/16 04:17:05;;;;;;;25.77;15.90;;;;;;;;;;5058999;28;20480;-50
2021/11/16 04:19:31;;;;;;;33.83;17.93;;;;;;;;;;5058476;28;20404;-50
2021/11/16 04:21:57;;;;;;;35.30;16.30;;;;;;;;;;5058579;28;20396;-49
2021/11/16 04:24:23;;;;;;;28.47;15.00;;;;;;;;;;5058223;28;20427;-49
2021/11/16 04:26:49;;;;;;;35.83;16.70;;;;;;;;;;5058344;28;20397;-50
2021/11/16 04:29:15;;;;;;;32.73;18.00;;;;;;;;;;5058473;28;20412;-49
2021/11/16 04:31:41;;;;;;;34.53;18.10;;;;;;;;;;5058617;28;20398;-52
2021/11/16 04:34:08;;;;;;;36.53;18.17;;;;;;;;;;5057612;28;20556;-51
2021/11/16 04:36:34;;;;;;;39.17;18.67;;;;;;;;;;5058482;28;20795;-50
2021/11/16 04:39:01;;;;;;;38.50;19.10;;;;;;;;;;5057736;28;20437;-50
2021/11/16 04:41:27;;;;;;;44.23;17.83;;;;;;;;;;5057748;28;20203;-52
2021/11/16 04:43:56;;;;;;;37.60;18.10;;;;;;;;;;5057814;28;20417;-50
2021/11/16 04:46:24;;;;;;;43.70;19.63;;;;;;;;;;5058487;28;20405;-51
2021/11/16 04:49:13;;;;;;;35.30;16.73;;;;;;;;;;5058341;28;20397;-51
2021/11/16 04:52:06;;;;;;;34.55;18.13;;;;;;;;;;5058753;28;20397;-51
2021/11/16 05:05:11;;;;;;;44.60;18.90;;;;;;;;;;5058153;28;20452;-52
2021/11/16 05:07:38;;;;;;;29.50;18.43;;;;;;;;;;5057139;28;20412;-52
2021/11/16 05:10:06;;;;;;;38.30;17.60;;;;;;;;;;5057764;28;20427;-49
2021/11/16 05:12:32;;;;;;;35.30;18.20;;;;;;;;;;5057969;28;20445;-50
2021/11/16 05:15:00;;;;;;;34.77;19.70;;;;;;;;;;5057651;28;20497;-49
2021/11/16 05:17:26;;;;;;;36.77;18.40;;;;;;;;;;5057442;28;20394;-51
2021/11/16 05:19:53;;;;;;;40.77;18.70;;;;;;;;;;5057370;28;20491;-50
2021/11/16 05:22:19;;;;;;;36.13;17.10;;;;;;;;;;5057335;28;20394;-53
2021/11/16 05:24:45;;;;;;;35.03;17.13;;;;;;;;;;5057910;28;20448;-50
2021/11/16 05:27:11;;;;;;;44.73;20.43;;;;;;;;;;5057217;28;20404;-52
2021/11/16 05:29:37;;;;;;;35.63;18.27;;;;;;;;;;5057298;28;20809;-52
2021/11/16 05:32:03;;;;;;;26.40;16.40;;;;;;;;;;5056720;28;20680;-52
2021/11/16 05:34:29;;;;;;;36.10;17.13;;;;;;;;;;5057072;28;20778;-53
2021/11/16 05:36:55;;;;;;;23.17;13.83;;;;;;;;;;5057228;28;20397;-52
2021/11/16 05:39:21;;;;;;;30.80;16.87;;;;;;;;;;5057630;28;20510;-51
2021/11/16 05:41:47;;;;;;;27.87;15.63;;;;;;;;;;5057285;28;20404;-52
2021/11/16 05:44:14;;;;;;;27.03;15.93;;;;;;;;;;5056210;28;20445;-52
2021/11/16 05:46:40;;;;;;;31.60;17.30;;;;;;;;;;5056697;28;20431;-51
2021/11/16 05:49:06;;;;;;;36.93;18.77;;;;;;;;;;5056381;28;20920;-50
2021/11/16 05:51:32;;;;;;;42.70;20.00;;;;;;;;;;5056663;28;20405;-51
2021/11/16 05:54:00;;;;;;;34.60;18.50;;;;;;;;;;5055832;28;20464;-51
2021/11/16 05:56:27;;;;;;;30.03;16.30;;;;;;;;;;5056627;28;20446;-51
2021/11/16 05:58:54;;;;;;;38.40;18.40;;;;;;;;;;5056165;28;20399;-50
2021/11/16 06:01:24;;;;;;;38.40;18.60;;;;;;;;;;5056264;28;20445;-49
2021/11/16 06:03:54;;;;;;;39.40;19.80;;;;;;;;;;5056315;28;20938;-49
2021/11/16 06:06:24;;;;;;;35.33;19.47;;;;;;;;;;5056840;28;20399;-51
2021/11/16 06:08:52;;;;;;;34.87;19.00;;;;;;;;;;5056593;28;20502;-50
2021/11/16 06:11:18;;;;;;;34.57;18.23;;;;;;;;;;5056591;28;20413;-51
2021/11/16 06:13:48;;;;;;;39.57;19.50;;;;;;;;;;5056243;28;20489;-52
2021/11/16 06:16:15;;;;;;;34.17;18.03;;;;;;;;;;5056319;28;20410;-52
2021/11/16 06:18:41;;;;;;;38.87;20.60;;;;;;;;;;5055895;28;20405;-49
2021/11/16 06:21:11;;;;;;;34.60;18.30;;;;;;;;;;5056430;28;20498;-52
2021/11/16 06:23:38;;;;;;;33.53;17.70;;;;;;;;;;5055759;28;20509;-51
2021/11/16 06:26:04;;;;;;;33.60;16.67;;;;;;;;;;5055627;28;20915;-51
2021/11/16 06:28:30;;;;;;;31.33;15.30;;;;;;;;;;5055774;28;20455;-49
2021/11/16 06:30:56;;;;;;;30.90;16.07;;;;;;;;;;5055407;28;20891;-51
2021/11/16 06:33:23;;;;;;;32.03;17.83;;;;;;;;;;5054228;28;20516;-51
2021/11/16 06:35:49;;;;;;;30.40;15.33;;;;;;;;;;5055100;28;20920;-51
2021/11/16 06:38:15;;;;;;;31.73;17.37;;;;;;;;;;5055164;28;20426;-51
2021/11/16 06:40:47;;;;;;;36.25;18.35;;;;;;;;;;5054269;28;20893;-52
2021/11/16 06:43:19;;;;;;;31.63;16.57;;;;;;;;;;5054801;28;20189;-50
2021/11/16 06:45:46;;;;;;;38.57;18.87;;;;;;;;;;5054551;28;20393;-51
2021/11/16 06:48:12;;;;;;;34.20;17.90;;;;;;;;;;5054423;28;20460;-51
2021/11/16 06:50:38;;;;;;;31.40;14.93;;;;;;;;;;5054919;28;20403;-49
2021/11/16 06:53:04;;;;;;;37.53;18.47;;;;;;;;;;5054301;28;20461;-51
2021/11/16 06:55:29;;;;;;;33.33;18.30;;;;;;;;;;5054393;28;20414;-51
2021/11/16 06:57:56;;;;;;;33.27;15.70;;;;;;;;;;5054887;28;20843;-51
2021/11/16 07:00:22;;;;;;;37.47;17.87;;;;;;;;;;5054713;28;20394;-51
2021/11/16 07:02:56;;;;;;;31.30;17.80;;;;;;;;;;5054566;28;20423;-50
2021/11/16 07:05:22;;;;;;;40.30;17.30;;;;;;;;;;5054918;28;20890;-50
2021/11/16 07:07:48;;;;;;;31.33;17.53;;;;;;;;;;5054798;28;20406;-49
2021/11/16 07:10:17;;;;;;;32.23;16.07;;;;;;;;;;5054132;28;20470;-49
2021/11/16 07:12:43;;;;;;;32.90;17.30;;;;;;;;;;5053988;28;20462;-51
2021/11/16 07:15:10;;;;;;;33.80;16.27;;;;;;;;;;5054660;28;20406;-50
2021/11/16 07:17:36;;;;;;;34.22;16.98;;;;;;;;;;5054349;28;20494;-50
2021/11/16 07:20:02;;;;;;;31.00;15.70;;;;;;;;;;5054833;28;20203;-50
2021/11/16 07:22:29;;;;;;;34.10;17.77;;;;;;;;;;5053685;28;20481;-51
2021/11/16 07:24:56;;;;;;;29.87;15.67;;;;;;;;;;5053993;28;20407;-50
2021/11/16 07:27:36;;;;;;;33.60;16.03;;;;;;;;;;5054002;28;20402;-52
2021/11/16 07:30:03;;;;;;;28.87;15.70;;;;;;;;;;5053449;28;20748;-51
2021/11/16 07:32:31;;;;;;;37.40;17.20;;;;;;;;;;5053722;28;20833;-52
2021/11/16 07:35:04;;;;;;;34.30;17.30;;;;;;;;;;5054409;28;20787;-52
2021/11/16 07:37:34;;;;;;;30.60;16.00;;;;;;;;;;5054266;28;20409;-51
2021/11/16 07:40:05;;;;;;;35.07;18.10;;;;;;;;;;5054451;28;20493;-51
2021/11/16 07:42:33;;;;;;;34.77;17.10;;;;;;;;;;5054320;28;20917;-51
2021/11/16 07:44:59;;;;;;;38.43;17.33;;;;;;;;;;5054663;28;20432;-51
2021/11/16 07:47:39;;;;;;;34.07;16.93;;;;;;;;;;5054238;28;20405;-52
2021/11/16 07:50:05;;;;;;;45.20;18.67;;;;;;;;;;5054397;28;20447;-51
2021/11/16 07:52:31;;;;;;;37.40;17.80;;;;;;;;;;5054112;28;20466;-49
2021/11/16 07:54:57;;;;;;;41.87;18.87;;;;;;;;;;5054889;28;20887;-52
2021/11/16 07:57:23;;;;;;;41.43;17.93;;;;;;;;;;5054707;28;20486;-52
2021/11/16 07:59:54;;;;;;;38.87;18.03;;;;;;;;;;5054937;28;20904;-50
2021/11/16 08:02:33;;;;;;;37.10;18.23;;;;;;;;;;5054401;28;20393;-51
2021/11/16 08:05:20;;;;;;;41.87;18.17;;;;;;;;;;5054550;28;20941;-52
2021/11/16 08:08:05;;;;;;;39.47;18.97;;;;;;;;;;5054536;28;20400;-52
2021/11/16 08:10:32;;;;;;;40.67;20.00;;;;;;;;;;5054608;28;20413;-51
2021/11/16 08:13:07;;;;;;;41.77;20.77;;;;;;;;;;5054188;28;20968;-51
2021/11/16 08:15:33;;;;;;;42.00;21.87;;;;;;;;;;5054405;28;20459;-52
2021/11/16 08:18:04;;;;;;;43.57;20.43;;;;;;;;;;5054619;28;20813;-52
2021/11/16 08:20:30;;;;;;;37.70;19.10;;;;;;;;;;5054308;28;20405;-50
2021/11/16 08:23:03;;;;;;;32.70;16.60;;;;;;;;;;5054432;28;21047;-51
2021/11/16 08:25:29;;;;;;;37.33;18.80;;;;;;;;;;5054577;28;20456;-50
2021/11/16 08:27:55;;;;;;;35.23;18.03;;;;;;;;;;5054396;28;20402;-50
2021/11/16 08:30:23;;;;;;;56.70;23.07;;;;;;;;;;5054282;28;20489;-52
2021/11/16 08:32:57;;;;;;;48.30;21.70;;;;;;;;;;5053791;28;20473;-51
2021/11/16 08:35:27;;;;;;;47.87;22.50;;;;;;;;;;5054184;28;20394;-50
2021/11/16 08:38:01;;;;;;;43.27;20.83;;;;;;;;;;5054006;28;20401;-51
2021/11/16 08:40:29;;;;;;;51.60;21.63;;;;;;;;;;5054251;28;20863;-50
2021/11/16 08:42:57;;;;;;;49.97;22.73;;;;;;;;;;5056228;28;20427;-52
2021/11/16 08:45:31;;;;;;;52.07;22.40;;;;;;;;;;5058310;28;20491;-51
2021/11/16 08:48:05;;;;;;;44.30;20.67;;;;;;;;;;5057914;28;20403;-52
2021/11/16 08:50:33;;;;;;;51.13;20.67;;;;;;;;;;5057961;28;20422;-51
2021/11/16 08:53:04;;;;;;;42.13;21.10;;;;;;;;;;5057981;28;20483;-52
2021/11/16 08:55:33;;;;;;;53.00;21.90;;;;;;;;;;5057678;28;20434;-50
2021/11/16 08:58:00;;;;;;;54.27;23.97;;;;;;;;;;5057963;28;20394;-50
2021/11/16 09:00:27;;;;;;;50.43;21.87;;;;;;;;;;5057985;28;20412;-51
2021/11/16 09:03:02;;;;;;;44.80;18.87;;;;;;;;;;5057460;28;20433;-50
2021/11/16 09:05:32;;;;;;;38.23;19.20;;;;;;;;;;5057520;28;20747;-50
2021/11/16 09:07:59;;;;;;;41.40;20.50;;;;;;;;;;5057511;28;20764;-51
2021/11/16 09:10:32;;;;;;;48.43;18.83;;;;;;;;;;5057891;28;20413;-52
2021/11/16 09:13:00;;;;;;;45.70;22.20;;;;;;;;;;5056998;28;21012;-50
2021/11/16 09:15:31;;;;;;;38.43;19.03;;;;;;;;;;5057230;28;20480;-50
2021/11/16 09:18:08;;;;;;;43.77;20.90;;;;;;;;;;5057356;28;20402;-52
2021/11/16 09:20:34;;;;;;;52.00;23.10;;;;;;;;;;5057097;28;20476;-52
2021/11/16 09:23:00;;;;;;;44.97;21.13;;;;;;;;;;5057045;28;20417;-49
2021/11/16 09:25:29;;;;;;;48.20;22.00;;;;;;;;;;5056997;28;20972;-52
2021/11/16 09:28:02;;;;;;;50.97;21.70;;;;;;;;;;5056616;28;20398;-50
2021/11/16 09:30:36;;;;;;;52.47;23.20;;;;;;;;;;5056680;28;20971;-51
2021/11/16 09:33:11;;;;;;;42.07;21.47;;;;;;;;;;5056077;28;20458;-50
2021/11/16 09:35:44;;;;;;;49.23;21.80;;;;;;;;;;5056852;28;20696;-51
2021/11/16 09:38:10;;;;;;;45.63;20.23;;;;;;;;;;5056310;28;20402;-52
2021/11/16 09:40:36;;;;;;;47.83;20.33;;;;;;;;;;5056180;28;20821;-51
2021/11/16 09:43:03;;;;;;;46.60;22.13;;;;;;;;;;5056194;28;20472;-49
2021/11/16 09:45:31;;;;;;;42.97;20.53;;;;;;;;;;5055985;28;20496;-51
2021/11/16 09:47:57;;;;;;;43.40;21.13;;;;;;;;;;5056345;28;20411;-50
2021/11/16 09:50:24;;;;;;;46.23;21.40;;;;;;;;;;5056367;28;20461;-52
2021/11/16 09:52:51;;;;;;;42.23;19.73;;;;;;;;;;5055841;28;21039;-50
2021/11/16 09:55:22;;;;;;;44.90;19.40;;;;;;;;;;5056448;28;20417;-51
2021/11/16 09:57:52;;;;;;;46.83;20.40;;;;;;;;;;5055170;28;20414;-50
2021/11/16 10:00:30;;;;;;;37.67;18.03;;;;;;;;;;5056851;28;20406;-50
2021/11/16 10:03:26;;;;;;;34.03;16.70;;;;;;;;;;5055898;28;20454;-49
2021/11/16 10:05:54;;;;;;;35.37;17.33;;;;;;;;;;5038209;28;20417;-49
2021/11/16 10:08:21;;;;;;;36.50;19.33;;;;;;;;;;5055719;28;20774;-50
2021/11/16 10:10:51;;;;;;;33.10;14.90;;;;;;;;;;5055568;28;20976;-51
2021/11/16 10:13:19;;;;;;;44.63;18.03;;;;;;;;;;5053681;28;20468;-48
2021/11/16 10:15:46;;;;;;;34.43;16.10;;;;;;;;;;5060919;28;20425;-47
2021/11/16 10:18:14;;;;;;;34.30;18.00;;;;;;;;;;5052866;28;20435;-48
2021/11/16 10:20:42;;;;;;;37.60;17.87;;;;;;;;;;5053036;28;20453;-48
2021/11/16 10:23:09;;;;;;;29.70;16.17;;;;;;;;;;5052853;28;20429;-48
2021/11/16 10:25:37;;;;;;;38.20;17.93;;;;;;;;;;5053702;28;20408;-50
2021/11/16 10:28:07;;;;;;;40.87;18.70;;;;;;;;;;5053289;28;20417;-52
2021/11/16 10:30:34;;;;;;;40.67;19.60;;;;;;;;;;5053458;28;20768;-50
2021/11/16 10:33:08;;;;;;;39.23;18.20;;;;;;;;;;5052966;28;21029;-51
2021/11/16 10:35:35;;;;;;;42.60;18.13;;;;;;;;;;5053738;28;20409;-51
2021/11/16 10:38:04;;;;;;;40.90;17.87;;;;;;;;;;5052954;28;20403;-48
2021/11/16 10:40:30;;;;;;;39.23;18.83;;;;;;;;;;5052276;28;20430;-49
2021/11/16 10:42:58;;;;;;;42.17;18.83;;;;;;;;;;5052162;28;20939;-47
2021/11/16 10:45:25;;;;;;;40.77;18.50;;;;;;;;;;5052350;28;20533;-49
2021/11/16 10:47:52;;;;;;;39.20;18.83;;;;;;;;;;5052624;28;20406;-48
2021/11/16 10:50:20;;;;;;;41.50;19.07;;;;;;;;;;5052136;28;20407;-48
2021/11/16 10:52:57;;;;;;;37.17;17.00;;;;;;;;;;5049862;28;20457;-52
2021/11/16 10:55:32;;;;;;;38.13;18.60;;;;;;;;;;5050936;28;20426;-48
2021/11/16 10:58:04;;;;;;;35.47;18.13;;;;;;;;;;5052195;28;20403;-48
2021/11/16 11:00:31;;;;;;;35.97;17.23;;;;;;;;;;5052200;28;20410;-48
2021/11/16 11:03:12;;;;;;;31.87;15.10;;;;;;;;;;5051846;28;20823;-48
2021/11/16 11:05:38;;;;;;;37.10;16.97;;;;;;;;;;5051310;28;20434;-49
2021/11/16 11:08:04;;;;;;;35.40;16.70;;;;;;;;;;5052036;28;20992;-49
2021/11/16 11:10:46;;;;;;;33.57;15.83;;;;;;;;;;5051910;28;20464;-50
2021/11/16 11:13:22;;;;;;;35.40;17.33;;;;;;;;;;5051573;28;20447;-50
2021/11/16 11:15:49;;;;;;;38.70;18.40;;;;;;;;;;5051777;28;20395;-48
2021/11/16 11:18:28;;;;;;;37.07;18.60;;;;;;;;;;5051846;28;20414;-50
2021/11/16 11:20:54;;;;;;;42.03;19.23;;;;;;;;;;5051917;28;20395;-48
2021/11/16 11:23:41;;;;;;;34.10;17.27;;;;;;;;;;5051580;28;20430;-48
2021/11/16 11:26:32;;;;;;;36.50;18.33;;;;;;;;;;5052108;28;20449;-48
2021/11/16 11:29:14;;;;;;;38.83;18.03;;;;;;;;;;5051810;28;20914;-49
2021/11/16 11:31:40;;;;;;;37.90;17.30;;;;;;;;;;5051680;28;20928;-49
2021/11/16 11:34:06;;;;;;;34.57;16.33;;;;;;;;;;5051373;28;20458;-48
2021/11/16 11:36:32;;;;;;;34.17;17.73;;;;;;;;;;5051410;28;20890;-48
2021/11/16 11:38:58;;;;;;;41.90;19.33;;;;;;;;;;5051602;28;20401;-49
2021/11/16 11:41:25;;;;;;;41.80;18.30;;;;;;;;;;5051674;28;20479;-50
2021/11/16 11:44:12;;;;;;;32.13;15.30;;;;;;;;;;5051514;28;20532;-48
2021/11/16 11:46:48;;;;;;;29.50;16.77;;;;;;;;;;5051513;28;20449;-48
2021/11/16 11:49:14;;;;;;;34.37;17.10;;;;;;;;;;5051521;28;20403;-48
2021/11/16 11:51:41;;;;;;;37.10;16.67;;;;;;;;;;5051488;28;20439;-48
2021/11/16 11:54:07;;;;;;;28.27;15.00;;;;;;;;;;5051169;28;20458;-51
2021/11/16 11:56:35;;;;;;;32.27;15.37;;;;;;;;;;5051308;28;20419;-48
2021/11/16 11:59:02;;;;;;;29.80;15.53;;;;;;;;;;5051511;28;20399;-48
2021/11/16 12:01:29;;;;;;;25.37;13.47;;;;;;;;;;5051349;28;20400;-48
2021/11/16 12:03:55;;;;;;;28.00;13.73;;;;;;;;;;5051091;28;20446;-49
2021/11/16 12:06:25;;;;;;;27.33;12.23;;;;;;;;;;5051450;28;20503;-48
2021/11/16 12:08:51;;;;;;;22.70;11.23;;;;;;;;;;5051403;28;20439;-48
2021/11/16 12:11:19;;;;;;;20.03;11.20;;;;;;;;;;5051401;28;20903;-47
2021/11/16 12:13:46;;;;;;;21.17;10.20;;;;;;;;;;5050822;28;20541;-49
2021/11/16 12:16:35;;;;;;;18.90;9.83;;;;;;;;;;5052369;28;20495;-48
2021/11/16 12:19:05;;;;;;;15.63;8.80;;;;;;;;;;5055191;28;20480;-48
2021/11/16 12:21:34;;;;;;;11.30;6.73;;;;;;;;;;5055086;28;20438;-50
2021/11/16 12:24:07;;;;;;;13.60;7.50;;;;;;;;;;5055154;28;20464;-49
2021/11/16 12:26:35;;;;;;;11.77;7.10;;;;;;;;;;5064577;28;20842;-49
2021/11/16 12:29:12;;;;;;;12.53;6.90;;;;;;;;;;5054765;28;20776;-48
2021/11/16 12:31:39;;;;;;;9.93;7.17;;;;;;;;;;5053370;28;20399;-49
2021/11/16 12:34:05;;;;;;;10.17;6.77;;;;;;;;;;5053162;28;20455;-48
2021/11/16 12:36:33;;;;;;;10.30;6.63;;;;;;;;;;5054792;28;20406;-48
2021/11/16 12:39:19;;;;;;;9.50;6.60;;;;;;;;;;5054764;28;20479;-48
2021/11/16 12:41:47;;;;;;;12.60;6.03;;;;;;;;;;5055052;28;20900;-47
2021/11/16 12:44:14;;;;;;;10.23;6.90;;;;;;;;;;5054416;28;20425;-51
2021/11/16 12:46:41;;;;;;;11.80;6.60;;;;;;;;;;5054565;28;20455;-48
2021/11/16 12:49:08;;;;;;;9.00;5.77;;;;;;;;;;5054694;28;20431;-47
2021/11/16 12:51:36;;;;;;;10.53;7.07;;;;;;;;;;5054467;28;20407;-48
2021/11/16 12:54:03;;;;;;;11.70;7.10;;;;;;;;;;5054201;28;20512;-47
2021/11/16 12:56:41;;;;;;;11.80;6.90;;;;;;;;;;5054328;28;20483;-48
2021/11/16 12:59:08;;;;;;;14.10;8.60;;;;;;;;;;5054425;28;20398;-48
2021/11/16 13:01:39;;;;;;;13.77;7.27;;;;;;;;;;5054442;28;20760;-50
2021/11/16 13:04:08;;;;;;;15.03;8.73;;;;;;;;;;5054036;28;20442;-50
2021/11/16 13:06:38;;;;;;;13.17;8.00;;;;;;;;;;5054298;28;20405;-48
2021/11/16 13:09:04;;;;;;;13.70;8.33;;;;;;;;;;5054346;28;20436;-48
2021/11/16 13:11:42;;;;;;;20.23;9.40;;;;;;;;;;5054296;28;20534;-48
2021/11/16 13:14:09;;;;;;;15.70;8.70;;;;;;;;;;5053796;28;20452;-49
2021/11/16 13:16:35;;;;;;;13.60;7.70;;;;;;;;;;5053949;28;20972;-50
2021/11/16 13:19:01;;;;;;;12.10;7.60;;;;;;;;;;5054180;28;20439;-48
2021/11/16 13:21:28;;;;;;;13.97;8.87;;;;;;;;;;5054086;28;20403;-48
2021/11/16 13:24:02;;;;;;;17.20;9.30;;;;;;;;;;5053694;28;20423;-48
2021/11/16 13:27:02;;;;;;;11.83;8.27;;;;;;;;;;5053954;28;20841;-49
2021/11/16 13:29:31;;;;;;;22.23;9.50;;;;;;;;;;5039136;28;20557;-48
2021/11/16 13:31:58;;;;;;;25.90;11.40;;;;;;;;;;5053858;28;20403;-48
2021/11/16 13:34:42;;;;;;;22.00;10.93;;;;;;;;;;5053569;28;20464;-48
2021/11/16 13:37:11;;;;;;;14.70;10.00;;;;;;;;;;5053698;28;20430;-48
2021/11/16 13:39:38;;;;;;;17.87;9.90;;;;;;;;;;5053540;28;20406;-48
2021/11/16 13:42:21;;;;;;;22.90;11.90;;;;;;;;;;5053890;28;20397;-48
2021/11/16 13:44:55;;;;;;;17.43;10.07;;;;;;;;;;5053589;28;20434;-50
2021/11/16 13:47:39;;;;;;;17.77;11.23;;;;;;;;;;5053540;28;21036;-48
2021/11/16 13:50:11;;;;;;;16.97;10.20;;;;;;;;;;5053475;28;20390;-48
2021/11/16 13:52:39;;;;;;;21.97;10.93;;;;;;;;;;5053000;28;20429;-48
2021/11/16 13:55:26;;;;;;;20.00;10.30;;;;;;;;;;5053382;28;20426;-48
2021/11/16 13:57:57;;;;;;;18.40;11.10;;;;;;;;;;5053330;28;20400;-47
2021/11/16 14:00:25;;;;;;;22.33;12.70;;;;;;;;;;5053330;28;20437;-50
2021/11/16 14:02:55;;;;;;;23.57;11.63;;;;;;;;;;5052949;28;20864;-48
2021/11/16 14:05:22;;;;;;;19.80;10.67;;;;;;;;;;5053308;28;20448;-51
2021/11/16 14:07:55;;;;;;;23.90;11.40;;;;;;;;;;5053169;28;20407;-48
2021/11/16 14:10:22;;;;;;;20.80;12.20;;;;;;;;;;5053208;28;20902;-51
2021/11/16 14:12:49;;;;;;;23.63;11.77;;;;;;;;;;5052627;28;20449;-48
2021/11/16 14:15:19;;;;;;;15.57;10.50;;;;;;;;;;5053119;28;20966;-48
2021/11/16 14:17:57;;;;;;;18.70;10.60;;;;;;;;;;5052946;28;20401;-48
2021/11/16 14:20:23;;;;;;;25.17;12.80;;;;;;;;;;5053026;28;20406;-48
2021/11/16 14:22:49;;;;;;;21.13;11.07;;;;;;;;;;5052603;28;20471;-48
2021/11/16 14:25:17;;;;;;;21.20;11.80;;;;;;;;;;5052804;28;20406;-49
2021/11/16 14:27:43;;;;;;;18.10;10.07;;;;;;;;;;5052963;28;20408;-49
2021/11/16 14:30:10;;;;;;;22.30;12.43;;;;;;;;;;5051240;28;20448;-49
2021/11/16 14:32:36;;;;;;;16.83;11.10;;;;;;;;;;5052311;28;20431;-51
2021/11/16 14:35:13;;;;;;;23.67;12.43;;;;;;;;;;5052631;28;20411;-48
2021/11/16 14:37:53;;;;;;;19.03;11.93;;;;;;;;;;5052520;28;20395;-49
2021/11/16 14:40:20;;;;;;;21.43;12.00;;;;;;;;;;5051539;28;20773;-48